sensor_id;sensor_type;location;lat;lon;timestamp;pressure;altitude;pressure_sealevel;temperature;humidity
75051;BME280;63628;47.656;11.310;2022-11-11T00:01:34;96199.75;;;9.06;72.08
75051;BME280;63628;47.656;11.310;2022-11-11T00:04:00;96208.44;;;9.21;71.99
75051;BME280;63628;47.656;11.310;2022-11-11T00:06:26;96200.59;;;8.55;73.69
75051;BME280;63628;47.656;11.310;2022-11-11T00:08:53;96205.59;;;9.01;73.15
75051;BME280;63628;47.656;11.310;2022-11-11T00:11:19;96203.19;;;9.06;73.28
75051;BME280;63628;47.656;11.310;2022-11-11T00:13:46;96174.09;;;9.00;72.39
75051;BME280;63628;47.656;11.310;2022-11-11T00:16:17;96179.25;;;9.08;72.53
75051;BME280;63628;47.656;11.310;2022-11-11T00:18:44;96167.88;;;9.07;72.66
75051;BME280;63628;47.656;11.310;2022-11-11T00:21:31;96164.88;;;9.10;72.27
75051;BME280;63628;47.656;11.310;2022-11-11T00:24:36;96160.75;;;9.08;72.22
75051;BME280;63628;47.656;11.310;2022-11-11T00:27:21;96151.69;;;9.10;72.06
75051;BME280;63628;47.656;11.310;2022-11-11T00:29:47;96156.63;;;8.99;72.28
75051;BME280;63628;47.656;11.310;2022-11-11T00:32:14;96165.41;;;4.52;71.44
75051;BME280;63628;47.656;11.310;2022-11-11T00:34:50;96157.66;;;7.73;77.35
75051;BME280;63628;47.656;11.310;2022-11-11T00:37:35;96158.47;;;8.62;73.42
75051;BME280;63628;47.656;11.310;2022-11-11T00:40:02;96146.88;;;8.78;72.33
75051;BME280;63628;47.656;11.310;2022-11-11T00:42:29;96162.19;;;8.89;71.39
75051;BME280;63628;47.656;11.310;2022-11-11T00:44:56;96143.09;;;7.62;63.61
75051;BME280;63628;47.656;11.310;2022-11-11T00:47:22;96152.94;;;8.57;73.46
75051;BME280;63628;47.656;11.310;2022-11-11T00:50:37;96159.75;;;8.87;72.70
75051;BME280;63628;47.656;11.310;2022-11-11T00:53:27;96159.31;;;8.84;72.49
75051;BME280;63628;47.656;11.310;2022-11-11T00:55:55;96144.66;;;8.81;72.29
75051;BME280;63628;47.656;11.310;2022-11-11T00:58:22;96163.59;;;8.85;72.52
75051;BME280;63628;47.656;11.310;2022-11-11T01:00:49;96162.63;;;5.84;65.08
75051;BME280;63628;47.656;11.310;2022-11-11T01:03:19;96159.75;;;8.22;74.71
75051;BME280;63628;47.656;11.310;2022-11-11T01:05:46;96158.09;;;8.65;72.71
75051;BME280;63628;47.656;11.310;2022-11-11T01:08:13;96157.97;;;8.73;72.41
75051;BME280;63628;47.656;11.310;2022-11-11T01:10:40;96154.59;;;6.32;66.79
75051;BME280;63628;47.656;11.310;2022-11-11T01:13:20;96134.47;;;8.27;74.22
75051;BME280;63628;47.656;11.310;2022-11-11T01:15:48;96171.38;;;4.12;73.62
75051;BME280;63628;47.656;11.310;2022-11-11T01:18:20;96147.47;;;7.55;77.59
75051;BME280;63628;47.656;11.310;2022-11-11T01:20:59;96150.22;;;7.77;65.68
75051;BME280;63628;47.656;11.310;2022-11-11T01:23:27;96132.97;;;6.76;70.81
75051;BME280;63628;47.656;11.310;2022-11-11T01:26:18;96150.47;;;5.99;81.02
75051;BME280;63628;47.656;11.310;2022-11-11T01:28:52;96149.00;;;7.64;68.80
75051;BME280;63628;47.656;11.310;2022-11-11T01:31:20;96150.03;;;8.22;74.19
75051;BME280;63628;47.656;11.310;2022-11-11T01:33:48;96144.22;;;8.42;73.37
75051;BME280;63628;47.656;11.310;2022-11-11T01:36:17;96143.53;;;7.14;63.12
75051;BME280;63628;47.656;11.310;2022-11-11T01:38:47;96136.16;;;7.84;75.57
75051;BME280;63628;47.656;11.310;2022-11-11T01:41:17;96136.75;;;8.31;73.45
75051;BME280;63628;47.656;11.310;2022-11-11T01:46:59;96143.69;;;8.46;73.00
75051;BME280;63628;47.656;11.310;2022-11-11T01:52:04;96135.47;;;8.41;72.93
75051;BME280;63628;47.656;11.310;2022-11-11T01:59:54;96155.38;;;8.44;72.86
75051;BME280;63628;47.656;11.310;2022-11-11T02:02:32;96148.47;;;8.43;72.80
75051;BME280;63628;47.656;11.310;2022-11-11T02:05:02;96154.22;;;8.17;67.99
75051;BME280;63628;47.656;11.310;2022-11-11T02:07:48;96158.03;;;8.44;73.05
75051;BME280;63628;47.656;11.310;2022-11-11T02:10:21;96164.84;;;6.81;74.07
75051;BME280;63628;47.656;11.310;2022-11-11T02:12:48;96160.59;;;8.22;73.22
75051;BME280;63628;47.656;11.310;2022-11-11T02:15:34;96138.56;;;8.30;73.12
75051;BME280;63628;47.656;11.310;2022-11-11T02:18:01;96158.50;;;8.47;72.79
75051;BME280;63628;47.656;11.310;2022-11-11T02:20:33;96152.59;;;8.45;72.38
75051;BME280;63628;47.656;11.310;2022-11-11T02:23:06;96168.19;;;8.32;65.68
75051;BME280;63628;47.656;11.310;2022-11-11T02:25:36;96166.59;;;8.16;73.25
75051;BME280;63628;47.656;11.310;2022-11-11T02:28:05;96169.47;;;7.77;74.05
75051;BME280;63628;47.656;11.310;2022-11-11T02:30:33;96172.22;;;8.28;73.43
75051;BME280;63628;47.656;11.310;2022-11-11T02:33:00;96171.66;;;8.33;72.66
75051;BME280;63628;47.656;11.310;2022-11-11T02:35:30;96173.78;;;8.37;72.61
75051;BME280;63628;47.656;11.310;2022-11-11T02:37:57;96176.78;;;8.34;72.78
75051;BME280;63628;47.656;11.310;2022-11-11T02:40:32;96186.16;;;8.37;72.71
75051;BME280;63628;47.656;11.310;2022-11-11T02:43:00;96185.19;;;7.33;75.45
75051;BME280;63628;47.656;11.310;2022-11-11T02:45:27;96183.84;;;8.19;73.08
75051;BME280;63628;47.656;11.310;2022-11-11T02:47:53;96184.59;;;8.27;72.63
75051;BME280;63628;47.656;11.310;2022-11-11T02:50:20;96187.47;;;8.33;72.50
75051;BME280;63628;47.656;11.310;2022-11-11T02:52:47;96183.06;;;8.33;73.10
75051;BME280;63628;47.656;11.310;2022-11-11T02:55:13;96192.31;;;8.29;72.60
75051;BME280;63628;47.656;11.310;2022-11-11T02:57:40;96182.75;;;8.28;72.60
75051;BME280;63628;47.656;11.310;2022-11-11T03:00:07;96189.84;;;8.27;72.84
75051;BME280;63628;47.656;11.310;2022-11-11T03:02:34;96185.41;;;8.28;72.74
75051;BME280;63628;47.656;11.310;2022-11-11T03:05:00;96182.41;;;8.31;73.09
75051;BME280;63628;47.656;11.310;2022-11-11T03:07:27;96168.69;;;8.21;72.49
75051;BME280;63628;47.656;11.310;2022-11-11T03:09:54;96172.56;;;8.25;72.51
75051;BME280;63628;47.656;11.310;2022-11-11T03:12:20;96177.94;;;8.32;72.04
75051;BME280;63628;47.656;11.310;2022-11-11T03:14:47;96162.97;;;7.88;72.50
75051;BME280;63628;47.656;11.310;2022-11-11T03:17:14;96169.13;;;8.24;72.11
75051;BME280;63628;47.656;11.310;2022-11-11T03:19:59;96184.06;;;6.20;77.37
75051;BME280;63628;47.656;11.310;2022-11-11T03:22:58;96186.22;;;7.47;67.46
75051;BME280;63628;47.656;11.310;2022-11-11T03:25:25;96180.28;;;6.84;75.86
75051;BME280;63628;47.656;11.310;2022-11-11T03:28:04;96167.78;;;7.84;73.45
75051;BME280;63628;47.656;11.310;2022-11-11T03:30:31;96185.59;;;8.12;72.28
75051;BME280;63628;47.656;11.310;2022-11-11T03:33:01;96193.75;;;6.58;61.44
75051;BME280;63628;47.656;11.310;2022-11-11T03:35:28;96215.66;;;4.39;81.50
75051;BME280;63628;47.656;11.310;2022-11-11T03:37:55;96207.75;;;6.12;81.19
75051;BME280;63628;47.656;11.310;2022-11-11T03:40:44;96199.44;;;7.61;74.43
75051;BME280;63628;47.656;11.310;2022-11-11T03:43:12;96191.38;;;7.78;73.55
75051;BME280;63628;47.656;11.310;2022-11-11T03:45:39;96212.50;;;7.92;73.43
75051;BME280;63628;47.656;11.310;2022-11-11T03:48:06;96193.13;;;7.85;73.43
75051;BME280;63628;47.656;11.310;2022-11-11T03:50:33;96196.69;;;7.92;72.84
75051;BME280;63628;47.656;11.310;2022-11-11T03:53:00;96215.59;;;7.96;73.48
75051;BME280;63628;47.656;11.310;2022-11-11T03:55:27;96217.75;;;7.92;73.22
75051;BME280;63628;47.656;11.310;2022-11-11T03:57:54;96222.69;;;7.95;73.04
75051;BME280;63628;47.656;11.310;2022-11-11T04:00:22;96211.84;;;7.90;72.80
75051;BME280;63628;47.656;11.310;2022-11-11T04:02:49;96233.50;;;8.01;72.61
75051;BME280;63628;47.656;11.310;2022-11-11T04:05:35;96228.91;;;7.80;73.21
75051;BME280;63628;47.656;11.310;2022-11-11T04:08:36;96239.22;;;7.89;72.83
75051;BME280;63628;47.656;11.310;2022-11-11T04:11:27;96242.13;;;7.94;72.84
75051;BME280;63628;47.656;11.310;2022-11-11T04:14:00;96242.50;;;7.91;72.75
75051;BME280;63628;47.656;11.310;2022-11-11T04:16:46;96239.03;;;7.91;72.74
75051;BME280;63628;47.656;11.310;2022-11-11T04:19:13;96238.22;;;7.90;73.09
75051;BME280;63628;47.656;11.310;2022-11-11T04:21:58;96240.84;;;7.90;72.85
75051;BME280;63628;47.656;11.310;2022-11-11T04:24:24;96223.25;;;7.30;67.85
75051;BME280;63628;47.656;11.310;2022-11-11T04:27:12;96234.84;;;7.82;73.14
75051;BME280;63628;47.656;11.310;2022-11-11T04:29:39;96243.84;;;7.87;72.76
75051;BME280;63628;47.656;11.310;2022-11-11T04:32:10;96233.03;;;7.82;73.01
75051;BME280;63628;47.656;11.310;2022-11-11T04:35:00;96255.31;;;7.34;74.69
75051;BME280;63628;47.656;11.310;2022-11-11T04:37:30;96255.16;;;7.73;72.67
75051;BME280;63628;47.656;11.310;2022-11-11T04:39:57;96265.69;;;6.74;64.06
75051;BME280;63628;47.656;11.310;2022-11-11T04:42:42;96252.84;;;7.02;66.70
75051;BME280;63628;47.656;11.310;2022-11-11T04:45:10;96259.22;;;6.37;77.59
75051;BME280;63628;47.656;11.310;2022-11-11T04:47:59;96261.09;;;7.52;73.12
75051;BME280;63628;47.656;11.310;2022-11-11T04:50:31;96235.03;;;7.57;73.07
75051;BME280;63628;47.656;11.310;2022-11-11T04:52:59;96249.06;;;7.73;72.74
75051;BME280;63628;47.656;11.310;2022-11-11T04:55:26;96236.06;;;7.71;72.94
75051;BME280;63628;47.656;11.310;2022-11-11T04:58:12;96235.06;;;7.72;72.63
75051;BME280;63628;47.656;11.310;2022-11-11T05:00:38;96230.78;;;7.71;73.17
75051;BME280;63628;47.656;11.310;2022-11-11T05:03:05;96232.78;;;7.69;72.76
75051;BME280;63628;47.656;11.310;2022-11-11T05:05:52;96207.88;;;7.57;73.13
75051;BME280;63628;47.656;11.310;2022-11-11T05:08:48;96217.16;;;7.68;73.04
75051;BME280;63628;47.656;11.310;2022-11-11T05:11:29;96221.88;;;6.58;60.86
75051;BME280;63628;47.656;11.310;2022-11-11T05:13:57;96220.44;;;7.32;74.36
75051;BME280;63628;47.656;11.310;2022-11-11T05:16:47;96221.88;;;7.57;73.20
75051;BME280;63628;47.656;11.310;2022-11-11T05:19:33;96220.94;;;4.47;66.65
75051;BME280;63628;47.656;11.310;2022-11-11T05:22:22;96219.06;;;6.59;77.05
75051;BME280;63628;47.656;11.310;2022-11-11T05:24:49;96204.28;;;7.35;74.00
75051;BME280;63628;47.656;11.310;2022-11-11T05:27:34;96216.66;;;7.49;73.04
75051;BME280;63628;47.656;11.310;2022-11-11T05:30:01;96201.56;;;7.43;73.45
75051;BME280;63628;47.656;11.310;2022-11-11T05:32:28;96215.13;;;7.55;72.71
75051;BME280;63628;47.656;11.310;2022-11-11T05:34:54;96219.47;;;7.48;73.17
75051;BME280;63628;47.656;11.310;2022-11-11T05:37:20;96221.56;;;7.52;73.00
75051;BME280;63628;47.656;11.310;2022-11-11T05:39:47;96236.22;;;5.43;65.10
75051;BME280;63628;47.656;11.310;2022-11-11T05:42:14;96212.78;;;7.22;73.94
75051;BME280;63628;47.656;11.310;2022-11-11T05:44:40;96226.25;;;6.96;74.20
75051;BME280;63628;47.656;11.310;2022-11-11T05:47:07;96228.91;;;7.42;73.33
75051;BME280;63628;47.656;11.310;2022-11-11T05:49:33;96234.25;;;7.34;72.98
75051;BME280;63628;47.656;11.310;2022-11-11T05:52:00;96232.66;;;7.48;73.27
75051;BME280;63628;47.656;11.310;2022-11-11T05:54:27;96234.69;;;7.38;72.67
75051;BME280;63628;47.656;11.310;2022-11-11T05:56:53;96258.16;;;7.47;72.67
75051;BME280;63628;47.656;11.310;2022-11-11T05:59:19;96256.53;;;7.46;73.03
75051;BME280;63628;47.656;11.310;2022-11-11T06:01:46;96260.97;;;7.46;73.20
75051;BME280;63628;47.656;11.310;2022-11-11T06:04:12;96253.78;;;7.40;73.18
75051;BME280;63628;47.656;11.310;2022-11-11T06:06:43;96274.97;;;7.46;72.99
75051;BME280;63628;47.656;11.310;2022-11-11T06:09:10;96291.16;;;5.28;73.30
75051;BME280;63628;47.656;11.310;2022-11-11T06:11:36;96277.94;;;6.50;76.11
75051;BME280;63628;47.656;11.310;2022-11-11T06:14:03;96270.88;;;7.13;73.52
75051;BME280;63628;47.656;11.310;2022-11-11T06:16:30;96279.06;;;7.26;73.40
75051;BME280;63628;47.656;11.310;2022-11-11T06:18:56;96276.72;;;4.32;67.30
75051;BME280;63628;47.656;11.310;2022-11-11T06:21:23;96278.19;;;5.27;77.28
75051;BME280;63628;47.656;11.310;2022-11-11T06:23:49;96281.66;;;6.64;67.52
75051;BME280;63628;47.656;11.310;2022-11-11T06:26:16;96280.34;;;5.64;78.68
75051;BME280;63628;47.656;11.310;2022-11-11T06:31:16;96291.19;;;1.66;77.83
75051;BME280;63628;47.656;11.310;2022-11-11T06:33:43;96300.34;;;6.22;77.09
75051;BME280;63628;47.656;11.310;2022-11-11T06:36:12;96293.63;;;6.75;74.66
75051;BME280;63628;47.656;11.310;2022-11-11T06:38:40;96299.06;;;7.04;73.83
75051;BME280;63628;47.656;11.310;2022-11-11T06:41:08;96309.88;;;6.78;73.89
75051;BME280;63628;47.656;11.310;2022-11-11T06:43:35;96316.44;;;5.62;63.83
75051;BME280;63628;47.656;11.310;2022-11-11T06:46:01;96309.25;;;6.76;74.76
75051;BME280;63628;47.656;11.310;2022-11-11T06:48:28;96310.94;;;7.00;73.55
75051;BME280;63628;47.656;11.310;2022-11-11T06:51:00;96314.16;;;7.10;73.40
75051;BME280;63628;47.656;11.310;2022-11-11T06:53:29;96322.25;;;7.09;73.98
75051;BME280;63628;47.656;11.310;2022-11-11T06:55:55;96327.16;;;7.12;73.70
75051;BME280;63628;47.656;11.310;2022-11-11T06:58:23;96312.06;;;7.06;73.27
75051;BME280;63628;47.656;11.310;2022-11-11T07:00:50;96325.53;;;7.11;73.44
75051;BME280;63628;47.656;11.310;2022-11-11T07:03:19;96333.88;;;7.14;73.28
75051;BME280;63628;47.656;11.310;2022-11-11T07:05:51;96348.84;;;6.03;63.99
75051;BME280;63628;47.656;11.310;2022-11-11T07:08:24;96348.81;;;5.87;78.33
75051;BME280;63628;47.656;11.310;2022-11-11T07:10:52;96346.38;;;6.81;74.73
75051;BME280;63628;47.656;11.310;2022-11-11T07:13:18;96344.38;;;6.91;73.60
75051;BME280;63628;47.656;11.310;2022-11-11T07:15:45;96352.22;;;6.99;73.88
75051;BME280;63628;47.656;11.310;2022-11-11T07:18:11;96368.97;;;7.07;73.43
75051;BME280;63628;47.656;11.310;2022-11-11T07:20:38;96362.56;;;7.01;73.39
75051;BME280;63628;47.656;11.310;2022-11-11T07:23:05;96369.03;;;6.19;69.88
75051;BME280;63628;47.656;11.310;2022-11-11T07:25:32;96374.09;;;7.00;73.29
75051;BME280;63628;47.656;11.310;2022-11-11T07:27:59;96379.63;;;7.13;73.17
75051;BME280;63628;47.656;11.310;2022-11-11T07:30:26;96375.69;;;7.09;73.15
75051;BME280;63628;47.656;11.310;2022-11-11T07:32:53;96376.34;;;7.11;73.36
75051;BME280;63628;47.656;11.310;2022-11-11T07:35:21;96366.81;;;7.10;73.32
75051;BME280;63628;47.656;11.310;2022-11-11T07:37:48;96368.94;;;7.15;72.88
75051;BME280;63628;47.656;11.310;2022-11-11T07:40:16;96375.25;;;6.18;68.21
75051;BME280;63628;47.656;11.310;2022-11-11T07:42:43;96383.50;;;6.07;75.79
75051;BME280;63628;47.656;11.310;2022-11-11T07:45:11;96384.03;;;6.82;74.69
75051;BME280;63628;47.656;11.310;2022-11-11T07:47:38;96389.88;;;7.00;73.61
75051;BME280;63628;47.656;11.310;2022-11-11T07:50:07;96400.81;;;6.81;71.93
75051;BME280;63628;47.656;11.310;2022-11-11T07:52:34;96404.91;;;6.83;67.78
75051;BME280;63628;47.656;11.310;2022-11-11T07:55:06;96397.88;;;6.67;74.66
75051;BME280;63628;47.656;11.310;2022-11-11T07:57:33;96395.22;;;6.84;70.88
75051;BME280;63628;47.656;11.310;2022-11-11T08:00:00;96393.47;;;6.60;75.10
75051;BME280;63628;47.656;11.310;2022-11-11T08:02:26;96391.38;;;6.94;73.45
75051;BME280;63628;47.656;11.310;2022-11-11T08:04:53;96397.84;;;6.84;68.92
75051;BME280;63628;47.656;11.310;2022-11-11T08:07:22;96380.94;;;6.70;74.13
75051;BME280;63628;47.656;11.310;2022-11-11T08:09:50;96393.34;;;7.00;73.12
75051;BME280;63628;47.656;11.310;2022-11-11T08:12:17;96395.75;;;6.63;73.51
75051;BME280;63628;47.656;11.310;2022-11-11T08:15:03;96396.31;;;6.97;73.53
75051;BME280;63628;47.656;11.310;2022-11-11T08:17:36;96401.88;;;7.03;73.54
75051;BME280;63628;47.656;11.310;2022-11-11T08:20:05;96404.97;;;6.67;73.06
75051;BME280;63628;47.656;11.310;2022-11-11T08:22:39;96405.47;;;6.62;75.26
75051;BME280;63628;47.656;11.310;2022-11-11T08:25:08;96412.28;;;6.96;73.70
75051;BME280;63628;47.656;11.310;2022-11-11T08:27:36;96410.19;;;6.83;76.52
75051;BME280;63628;47.656;11.310;2022-11-11T08:30:04;96412.66;;;6.77;76.05
75051;BME280;63628;47.656;11.310;2022-11-11T08:32:31;96410.31;;;6.90;73.88
75051;BME280;63628;47.656;11.310;2022-11-11T08:34:57;96417.19;;;6.99;73.82
75051;BME280;63628;47.656;11.310;2022-11-11T08:37:24;96405.34;;;7.03;73.58
75051;BME280;63628;47.656;11.310;2022-11-11T08:39:50;96392.22;;;6.95;73.75
75051;BME280;63628;47.656;11.310;2022-11-11T08:42:19;96403.66;;;7.10;73.32
75051;BME280;63628;47.656;11.310;2022-11-11T08:44:46;96396.94;;;7.08;73.61
75051;BME280;63628;47.656;11.310;2022-11-11T08:47:12;96399.31;;;7.34;75.22
75051;BME280;63628;47.656;11.310;2022-11-11T08:49:39;96403.47;;;7.28;72.68
75051;BME280;63628;47.656;11.310;2022-11-11T08:52:05;96400.34;;;7.55;76.40
75051;BME280;63628;47.656;11.310;2022-11-11T08:54:32;96404.31;;;7.51;76.32
75051;BME280;63628;47.656;11.310;2022-11-11T08:56:59;96397.66;;;7.63;76.54
75051;BME280;63628;47.656;11.310;2022-11-11T08:59:25;96401.63;;;7.59;78.33
75051;BME280;63628;47.656;11.310;2022-11-11T09:01:51;96388.47;;;7.28;73.30
75051;BME280;63628;47.656;11.310;2022-11-11T09:04:18;96382.47;;;7.43;75.17
75051;BME280;63628;47.656;11.310;2022-11-11T09:07:06;96402.16;;;7.24;73.47
75051;BME280;63628;47.656;11.310;2022-11-11T09:09:33;96388.34;;;7.76;77.36
75051;BME280;63628;47.656;11.310;2022-11-11T09:12:00;96398.41;;;7.80;72.95
75051;BME280;63628;47.656;11.310;2022-11-11T09:14:27;96390.78;;;8.69;75.35
75051;BME280;63628;47.656;11.310;2022-11-11T09:16:53;96381.41;;;8.66;76.12
75051;BME280;63628;47.656;11.310;2022-11-11T09:19:20;96377.16;;;8.19;72.09
75051;BME280;63628;47.656;11.310;2022-11-11T09:21:46;96395.13;;;7.47;73.17
75051;BME280;63628;47.656;11.310;2022-11-11T09:24:13;96398.84;;;7.30;73.52
75051;BME280;63628;47.656;11.310;2022-11-11T09:26:39;96398.44;;;8.18;76.15
75051;BME280;63628;47.656;11.310;2022-11-11T09:29:06;96398.88;;;8.07;74.40
75051;BME280;63628;47.656;11.310;2022-11-11T09:31:32;96396.59;;;8.79;73.91
75051;BME280;63628;47.656;11.310;2022-11-11T09:34:14;96388.94;;;8.54;75.45
75051;BME280;63628;47.656;11.310;2022-11-11T09:36:41;96402.25;;;9.05;77.95
75051;BME280;63628;47.656;11.310;2022-11-11T09:39:08;96406.34;;;8.78;76.63
75051;BME280;63628;47.656;11.310;2022-11-11T09:42:12;96397.91;;;9.12;74.46
75051;BME280;63628;47.656;11.310;2022-11-11T09:50:28;96382.22;;;8.67;71.79
75051;BME280;63628;47.656;11.310;2022-11-11T09:53:10;96367.91;;;7.78;73.39
75051;BME280;63628;47.656;11.310;2022-11-11T09:55:45;96359.91;;;8.99;82.20
75051;BME280;63628;47.656;11.310;2022-11-11T09:58:25;96365.56;;;11.50;73.01
75051;BME280;63628;47.656;11.310;2022-11-11T10:03:38;96360.19;;;11.30;68.44
75051;BME280;63628;47.656;11.310;2022-11-11T10:08:58;96350.63;;;13.92;64.46
75051;BME280;63628;47.656;11.310;2022-11-11T10:11:47;96354.88;;;15.06;64.60
75051;BME280;63628;47.656;11.310;2022-11-11T10:14:18;96343.69;;;13.91;63.05
75051;BME280;63628;47.656;11.310;2022-11-11T10:17:01;96342.94;;;14.40;62.31
75051;BME280;63628;47.656;11.310;2022-11-11T10:22:33;96343.63;;;13.01;66.08
75051;BME280;63628;47.656;11.310;2022-11-11T10:27:43;96329.03;;;14.07;63.26
75051;BME280;63628;47.656;11.310;2022-11-11T10:30:21;96328.25;;;14.31;64.56
75051;BME280;63628;47.656;11.310;2022-11-11T10:32:58;96326.69;;;14.73;60.19
75051;BME280;63628;47.656;11.310;2022-11-11T10:35:27;96318.19;;;13.77;66.85
75051;BME280;63628;47.656;11.310;2022-11-11T10:40:47;96304.53;;;14.54;62.03
75051;BME280;63628;47.656;11.310;2022-11-11T10:43:18;96325.56;;;15.54;62.72
75051;BME280;63628;47.656;11.310;2022-11-11T10:45:50;96329.47;;;14.35;61.42
75051;BME280;63628;47.656;11.310;2022-11-11T10:48:28;96324.00;;;14.23;64.31
75051;BME280;63628;47.656;11.310;2022-11-11T10:50:59;96333.84;;;13.53;65.50
75051;BME280;63628;47.656;11.310;2022-11-11T10:59:20;96349.28;;;9.79;72.92
75051;BME280;63628;47.656;11.310;2022-11-11T11:04:47;96335.56;;;9.90;70.44
75051;BME280;63628;47.656;11.310;2022-11-11T11:07:41;96326.03;;;9.17;72.92
75051;BME280;63628;47.656;11.310;2022-11-11T11:10:31;96324.91;;;9.62;73.24
75051;BME280;63628;47.656;11.310;2022-11-11T11:13:15;96317.72;;;10.20;69.36
75051;BME280;63628;47.656;11.310;2022-11-11T11:15:46;96321.19;;;9.99;70.42
75051;BME280;63628;47.656;11.310;2022-11-11T11:18:17;96311.34;;;10.64;71.93
75051;BME280;63628;47.656;11.310;2022-11-11T11:21:01;96311.03;;;10.80;70.24
75051;BME280;63628;47.656;11.310;2022-11-11T11:23:45;96306.66;;;10.66;73.05
75051;BME280;63628;47.656;11.310;2022-11-11T11:26:13;96323.00;;;10.41;71.46
75051;BME280;63628;47.656;11.310;2022-11-11T11:28:55;96310.69;;;11.51;71.07
75051;BME280;63628;47.656;11.310;2022-11-11T11:31:34;96309.19;;;11.22;70.66
75051;BME280;63628;47.656;11.310;2022-11-11T11:34:02;96330.06;;;11.03;71.57
75051;BME280;63628;47.656;11.310;2022-11-11T11:36:29;96316.13;;;11.29;70.78
75051;BME280;63628;47.656;11.310;2022-11-11T11:38:56;96331.69;;;10.63;71.44
75051;BME280;63628;47.656;11.310;2022-11-11T11:41:42;96338.25;;;9.54;72.63
75051;BME280;63628;47.656;11.310;2022-11-11T11:44:30;96329.97;;;9.78;73.37
75051;BME280;63628;47.656;11.310;2022-11-11T11:47:06;96327.16;;;10.29;72.08
75051;BME280;63628;47.656;11.310;2022-11-11T11:55:10;96296.44;;;10.07;74.00
75051;BME280;63628;47.656;11.310;2022-11-11T11:57:55;96323.09;;;10.55;73.49
75051;BME280;63628;47.656;11.310;2022-11-11T12:00:28;96334.97;;;10.16;71.62
75051;BME280;63628;47.656;11.310;2022-11-11T12:08:05;96322.09;;;10.56;72.71
75051;BME280;63628;47.656;11.310;2022-11-11T12:13:38;96318.16;;;10.24;71.50
75051;BME280;63628;47.656;11.310;2022-11-11T12:16:23;96297.72;;;10.67;70.23
75051;BME280;63628;47.656;11.310;2022-11-11T12:30:44;96308.25;;;11.01;66.24
75051;BME280;63628;47.656;11.310;2022-11-11T12:33:26;96318.00;;;11.35;66.52
75051;BME280;63628;47.656;11.310;2022-11-11T12:39:21;96315.63;;;10.65;68.68
75051;BME280;63628;47.656;11.310;2022-11-11T12:48:00;96312.22;;;11.19;68.25
75051;BME280;63628;47.656;11.310;2022-11-11T12:50:54;96296.16;;;10.86;70.24
75051;BME280;63628;47.656;11.310;2022-11-11T12:54:13;96293.09;;;11.23;66.16
75051;BME280;63628;47.656;11.310;2022-11-11T13:02:15;96282.13;;;11.46;67.25
75051;BME280;63628;47.656;11.310;2022-11-11T13:07:21;96277.25;;;11.56;65.81
75051;BME280;63628;47.656;11.310;2022-11-11T13:15:30;96298.44;;;11.36;67.72
75051;BME280;63628;47.656;11.310;2022-11-11T13:18:00;96313.09;;;11.32;67.83
75051;BME280;63628;47.656;11.310;2022-11-11T13:21:00;96307.41;;;11.35;67.92
75051;BME280;63628;47.656;11.310;2022-11-11T13:23:29;96314.38;;;10.33;70.51
75051;BME280;63628;47.656;11.310;2022-11-11T13:26:00;96309.69;;;9.85;72.11
75051;BME280;63628;47.656;11.310;2022-11-11T13:28:43;96306.28;;;9.92;71.58
75051;BME280;63628;47.656;11.310;2022-11-11T13:31:35;96312.88;;;10.02;71.72
75051;BME280;63628;47.656;11.310;2022-11-11T13:34:05;96300.75;;;9.65;72.93
75051;BME280;63628;47.656;11.310;2022-11-11T13:36:54;96307.09;;;9.49;73.22
75051;BME280;63628;47.656;11.310;2022-11-11T13:39:30;96301.63;;;9.51;73.87
75051;BME280;63628;47.656;11.310;2022-11-11T13:41:58;96300.41;;;9.53;73.28
75051;BME280;63628;47.656;11.310;2022-11-11T13:44:58;96295.84;;;10.33;70.23
75051;BME280;63628;47.656;11.310;2022-11-11T13:47:31;96295.66;;;9.85;71.92
75051;BME280;63628;47.656;11.310;2022-11-11T13:50:37;96295.97;;;9.75;72.38
75051;BME280;63628;47.656;11.310;2022-11-11T13:53:11;96297.47;;;9.63;73.74
75051;BME280;63628;47.656;11.310;2022-11-11T13:55:43;96289.16;;;10.65;69.60
75051;BME280;63628;47.656;11.310;2022-11-11T13:58:22;96292.78;;;10.08;71.19
75051;BME280;63628;47.656;11.310;2022-11-11T14:01:05;96287.72;;;9.85;71.89
75051;BME280;63628;47.656;11.310;2022-11-11T14:03:34;96292.13;;;9.57;73.77
75051;BME280;63628;47.656;11.310;2022-11-11T14:13:52;96290.78;;;9.46;76.29
75051;BME280;63628;47.656;11.310;2022-11-11T14:19:27;96296.44;;;9.43;75.63
75051;BME280;63628;47.656;11.310;2022-11-11T14:21:55;96288.00;;;9.33;76.25
75051;BME280;63628;47.656;11.310;2022-11-11T14:24:39;96304.44;;;9.49;75.65
75051;BME280;63628;47.656;11.310;2022-11-11T14:29:36;96299.22;;;9.56;74.89
75051;BME280;63628;47.656;11.310;2022-11-11T14:34:48;96320.03;;;9.44;75.57
75051;BME280;63628;47.656;11.310;2022-11-11T14:39:51;96327.34;;;9.42;75.07
75051;BME280;63628;47.656;11.310;2022-11-11T14:45:02;96327.28;;;9.36;75.54
75051;BME280;63628;47.656;11.310;2022-11-11T14:49:56;96326.09;;;9.38;75.19
75051;BME280;63628;47.656;11.310;2022-11-11T14:52:39;96331.56;;;9.37;75.91
75051;BME280;63628;47.656;11.310;2022-11-11T14:57:58;96315.88;;;9.35;75.45
75051;BME280;63628;47.656;11.310;2022-11-11T15:00:30;96311.22;;;9.37;76.22
75051;BME280;63628;47.656;11.310;2022-11-11T15:06:13;96318.84;;;9.47;75.20
75051;BME280;63628;47.656;11.310;2022-11-11T15:09:02;96334.50;;;9.27;76.28
75051;BME280;63628;47.656;11.310;2022-11-11T15:12:01;96335.00;;;9.37;75.63
75051;BME280;63628;47.656;11.310;2022-11-11T15:14:47;96337.03;;;9.35;76.33
75051;BME280;63628;47.656;11.310;2022-11-11T15:28:33;96356.88;;;9.31;75.65
75051;BME280;63628;47.656;11.310;2022-11-11T15:36:34;96357.72;;;9.32;76.33
75051;BME280;63628;47.656;11.310;2022-11-11T15:39:10;96357.53;;;9.33;75.98
75051;BME280;63628;47.656;11.310;2022-11-11T15:41:41;96344.69;;;9.30;75.53
75051;BME280;63628;47.656;11.310;2022-11-11T15:44:16;96335.75;;;9.31;75.42